createdAt,value
2016-09-03T00:00:32.607Z,58.70
2016-09-03T00:01:28.702Z,58.80
2016-09-03T00:02:29.070Z,58.70
2016-09-03T00:03:38.307Z,58.70
2016-09-03T00:04:33.859Z,58.70
2016-09-03T00:05:22.025Z,58.60
2016-09-03T00:06:26.065Z,58.70
2016-09-03T00:07:28.969Z,58.60
2016-09-03T00:08:29.153Z,58.70
2016-09-03T00:09:30.434Z,is
2016-09-03T00:10:29.235Z,58.70
2016-09-03T00:11:34.106Z,58.80
2016-09-03T00:12:28.438Z,58.50
2016-09-03T00:13:34.228Z,58.50
2016-09-03T00:14:29.273Z,58.70
2016-09-03T00:15:33.027Z,58.80
2016-09-03T00:16:43.139Z,58.70
2016-09-03T00:17:27.122Z,58.80
2016-09-03T00:18:27.597Z,58.80
2016-09-03T00:19:29.343Z,58.60
2016-09-03T00:20:28.432Z,58.60
2016-09-03T00:21:33.233Z,58.70
2016-09-03T00:22:23.444Z,58.60
2016-09-03T00:23:42.696Z,58.60
2016-09-03T00:24:43.761Z,58.60
2016-09-03T00:25:33.017Z,58.60
2016-09-03T00:26:27.152Z,58.70
2016-09-03T00:27:29.499Z,58.70
2016-09-03T00:28:43.221Z,58.70
2016-09-03T00:29:26.455Z,58.60
2016-09-03T00:30:34.348Z,58.60
2016-09-03T00:31:29.020Z,58.60
2016-09-03T00:32:28.854Z,58.70
2016-09-03T00:33:35.110Z,58.50
2016-09-03T00:34:23.675Z,58.60
2016-09-03T00:35:29.375Z,58.70
2016-09-03T00:36:33.002Z,is
2016-09-03T00:37:29.469Z,58.60
2016-09-03T00:38:22.034Z,58.70
2016-09-03T00:39:28.982Z,58.60
2016-09-03T00:40:44.930Z,58.70
2016-09-03T00:41:21.821Z,58.70
2016-09-03T00:42:28.908Z,58.80
2016-09-03T00:43:27.998Z,is
2016-09-03T00:44:23.048Z,59.00
2016-09-03T00:45:33.681Z,58.90
2016-09-03T00:46:44.160Z,58.70
2016-09-03T00:47:27.778Z,58.60
2016-09-03T00:48:33.002Z,58.70
2016-09-03T00:49:33.861Z,58.70
2016-09-03T00:50:28.327Z,58.60
2016-09-03T00:51:45.212Z,58.60
2016-09-03T00:52:26.075Z,58.70
2016-09-03T00:53:33.551Z,58.70
2016-09-03T00:54:27.951Z,58.70
2016-09-03T00:55:29.171Z,58.70
2016-09-03T00:56:28.736Z,58.70
2016-09-03T00:57:33.554Z,58.70
2016-09-03T00:58:34.056Z,58.70
2016-09-03T00:59:43.332Z,58.60
2016-09-03T01:00:35.802Z,58.80
2016-09-03T01:01:23.168Z,58.70
2016-09-03T01:02:28.415Z,58.50
2016-09-03T01:03:28.540Z,58.60
2016-09-03T01:04:29.089Z,58.50
2016-09-03T01:05:28.600Z,58.70
2016-09-03T01:06:31.558Z,58.60
2016-09-03T01:07:29.382Z,58.60
2016-09-03T01:08:28.174Z,58.70
2016-09-03T01:09:28.741Z,58.50
2016-09-03T01:10:44.769Z,58.60
2016-09-03T01:11:31.358Z,58.60
2016-09-03T01:12:28.115Z,58.70
2016-09-03T01:13:33.107Z,58.70
2016-09-03T01:14:32.784Z,58.60
2016-09-03T01:15:31.786Z,is
2016-09-03T01:16:33.623Z,58.70
2016-09-03T01:17:28.051Z,58.70
2016-09-03T01:18:32.924Z,58.70
2016-09-03T01:19:28.243Z,58.60
2016-09-03T01:20:33.953Z,58.60
2016-09-03T01:21:33.053Z,58.50
2016-09-03T01:22:37.991Z,58.70
2016-09-03T01:23:23.915Z,58.70
2016-09-03T01:24:32.943Z,58.70
2016-09-03T01:25:33.913Z,58.60
2016-09-03T01:26:30.843Z,58.70
2016-09-03T01:27:28.430Z,58.60
2016-09-03T01:28:31.844Z,58.70
2016-09-03T01:29:34.522Z,58.60
2016-09-03T01:30:28.405Z,58.60
2016-09-03T01:31:32.482Z,58.70
2016-09-03T01:32:31.933Z,58.60
2016-09-03T01:33:28.433Z,58.60
2016-09-03T01:34:33.712Z,58.70
2016-09-03T01:35:27.575Z,58.70
2016-09-03T01:36:34.292Z,58.70
2016-09-03T01:37:27.351Z,58.70
2016-09-03T01:38:28.139Z,58.70
2016-09-03T01:39:33.295Z,58.60
2016-09-03T01:40:29.175Z,58.50
2016-09-03T01:41:25.334Z,58.60
2016-09-03T01:42:33.178Z,58.70
2016-09-03T01:43:27.322Z,58.70
2016-09-03T01:44:28.654Z,58.60
2016-09-03T01:45:33.436Z,58.60
2016-09-03T01:46:23.500Z,58.60
2016-09-03T01:47:37.987Z,58.80
2016-09-03T01:48:33.094Z,58.70
2016-09-03T01:49:31.909Z,58.80
2016-09-03T01:50:28.785Z,58.70
2016-09-03T01:51:53.306Z,58.70
2016-09-03T01:52:43.278Z,58.70
2016-09-03T01:53:31.613Z,58.50
2016-09-03T01:54:29.349Z,58.60
2016-09-03T01:55:33.392Z,58.70
2016-09-03T01:56:22.764Z,58.70
2016-09-03T01:57:32.278Z,is
2016-09-03T01:58:26.408Z,58.70
2016-09-03T01:59:33.393Z,58.70
2016-09-03T02:00:28.998Z,58.70
2016-09-03T02:01:28.505Z,58.70
2016-09-03T02:02:33.757Z,58.70
2016-09-03T02:03:28.096Z,58.60
2016-09-03T02:04:28.486Z,58.60
2016-09-03T02:05:33.344Z,58.60
2016-09-03T02:06:28.411Z,58.70
2016-09-03T02:07:27.685Z,58.70
2016-09-03T02:08:26.397Z,58.70
2016-09-03T02:09:34.201Z,58.70
2016-09-03T02:10:21.650Z,is
2016-09-03T02:11:35.676Z,58.70
2016-09-03T02:12:33.406Z,58.60
2016-09-03T02:13:29.010Z,58.60
2016-09-03T02:14:28.282Z,58.60
2016-09-03T02:15:27.415Z,58.60
2016-09-03T02:16:28.967Z,58.70
2016-09-03T02:17:28.830Z,58.50
2016-09-03T02:18:23.293Z,58.60
2016-09-03T02:19:32.928Z,58.60
2016-09-03T02:20:28.268Z,58.70
2016-09-03T02:21:28.607Z,58.50
2016-09-03T02:22:28.692Z,58.50
2016-09-03T02:23:28.361Z,58.50
2016-09-03T02:24:47.673Z,is
2016-09-03T02:25:27.478Z,58.60
2016-09-03T02:26:33.399Z,58.60
2016-09-03T02:27:29.178Z,is
2016-09-03T02:28:28.083Z,58.60
2016-09-03T02:29:48.455Z,58.50
2016-09-03T02:30:31.642Z,58.40
2016-09-03T02:31:27.929Z,58.60
2016-09-03T02:32:27.113Z,58.60
2016-09-03T02:33:41.945Z,58.50
2016-09-03T02:34:27.898Z,58.40
2016-09-03T02:35:43.228Z,58.50
2016-09-03T02:36:27.194Z,58.50
2016-09-03T02:37:28.811Z,58.60
2016-09-03T02:38:33.830Z,58.40
2016-09-03T02:39:28.443Z,58.50
2016-09-03T02:40:28.351Z,58.50
2016-09-03T02:41:27.107Z,58.60
2016-09-03T02:42:26.868Z,58.50
2016-09-03T02:43:28.852Z,58.60
2016-09-03T02:44:29.629Z,58.50
2016-09-03T02:45:29.550Z,58.60
2016-09-03T02:46:32.807Z,58.40
2016-09-03T02:47:29.403Z,59.20
2016-09-03T02:48:29.482Z,58.50
2016-09-03T02:49:29.539Z,58.60
2016-09-03T02:50:29.217Z,58.50
2016-09-03T02:51:31.530Z,58.50
2016-09-03T02:52:30.802Z,58.50
2016-09-03T02:53:33.493Z,58.40
2016-09-03T02:54:32.652Z,58.50
2016-09-03T02:55:34.217Z,58.60
2016-09-03T02:56:26.225Z,58.60
2016-09-03T02:57:29.105Z,58.50
2016-09-03T02:58:29.295Z,58.50
2016-09-03T02:59:29.939Z,58.60
2016-09-03T03:00:28.124Z,58.40
2016-09-03T03:01:31.526Z,58.40
2016-09-03T03:02:28.318Z,58.40
2016-09-03T03:03:28.683Z,is
2016-09-03T03:04:28.822Z,58.50
2016-09-03T03:05:28.837Z,58.40
2016-09-03T03:06:26.426Z,58.40
2016-09-03T03:07:28.711Z,58.40
2016-09-03T03:08:29.198Z,58.40
2016-09-03T03:09:29.553Z,58.40
2016-09-03T03:10:34.300Z,58.40
2016-09-03T03:11:28.694Z,58.50
2016-09-03T03:12:32.958Z,58.40
2016-09-03T03:13:27.935Z,58.40
2016-09-03T03:14:28.313Z,58.40
2016-09-03T03:15:44.511Z,58.50
2016-09-03T03:16:33.004Z,58.30
2016-09-03T03:17:32.179Z,58.40
2016-09-03T03:18:31.506Z,58.50
2016-09-03T03:19:33.097Z,58.40
2016-09-03T03:20:33.393Z,58.40
2016-09-03T03:21:33.082Z,58.40
2016-09-03T03:22:27.913Z,58.30
2016-09-03T03:23:33.028Z,58.40
2016-09-03T03:24:28.143Z,58.30
2016-09-03T03:25:29.033Z,58.40
2016-09-03T03:26:34.540Z,58.30
2016-09-03T03:27:23.282Z,58.40
2016-09-03T03:28:23.518Z,58.30
2016-09-03T03:29:26.138Z,58.30
2016-09-03T03:30:29.609Z,58.40
2016-09-03T03:31:28.009Z,58.30
2016-09-03T03:32:31.581Z,58.20
2016-09-03T03:33:23.585Z,58.30
2016-09-03T03:34:29.030Z,58.20
2016-09-03T03:35:11.961Z,is
2016-09-03T03:36:28.509Z,58.20
2016-09-03T03:37:13.897Z,58.30
2016-09-03T03:38:33.890Z,58.30
2016-09-03T03:39:27.963Z,58.30
2016-09-03T03:40:23.297Z,58.20
2016-09-03T03:41:27.538Z,58.20
2016-09-03T03:42:28.647Z,58.40
2016-09-03T03:43:33.829Z,58.20
2016-09-03T03:44:29.383Z,58.40
2016-09-03T03:45:29.214Z,58.20
2016-09-03T03:46:33.134Z,58.40
2016-09-03T03:47:31.867Z,58.20
2016-09-03T03:48:27.588Z,58.30
2016-09-03T03:49:33.631Z,58.40
2016-09-03T03:50:28.498Z,58.20
2016-09-03T03:51:28.973Z,58.20
2016-09-03T03:52:29.750Z,58.40
2016-09-03T03:53:28.566Z,58.30
2016-09-03T03:54:28.846Z,58.30
2016-09-03T03:55:28.955Z,58.30
2016-09-03T03:56:28.805Z,58.20
2016-09-03T03:57:28.288Z,58.30
2016-09-03T03:58:28.940Z,58.20
2016-09-03T03:59:26.384Z,58.30
2016-09-03T04:00:33.870Z,58.30
2016-09-03T04:01:27.648Z,58.20
2016-09-03T04:02:28.703Z,58.30
2016-09-03T04:03:28.512Z,58.20
2016-09-03T04:04:29.486Z,58.20
2016-09-03T04:05:29.015Z,57.90
2016-09-03T04:06:28.286Z,58.20
2016-09-03T04:07:25.696Z,58.20
2016-09-03T04:08:27.888Z,58.20
2016-09-03T04:09:29.045Z,58.20
2016-09-03T04:10:13.101Z,58.10
2016-09-03T04:11:35.152Z,58.20
2016-09-03T04:12:31.542Z,57.60
2016-09-03T04:13:33.563Z,58.20
2016-09-03T04:14:28.403Z,58.30
2016-09-03T04:15:27.965Z,58.30
2016-09-03T04:16:43.734Z,58.20
2016-09-03T04:17:31.633Z,58.30
2016-09-03T04:18:33.027Z,58.20
2016-09-03T04:19:23.175Z,is
2016-09-03T04:20:28.157Z,58.20
2016-09-03T04:21:29.326Z,58.20
2016-09-03T04:22:28.850Z,58.20
2016-09-03T04:23:34.761Z,58.40
2016-09-03T04:24:32.601Z,is
2016-09-03T04:25:39.409Z,58.30
2016-09-03T04:26:27.875Z,58.20
2016-09-03T04:27:28.482Z,58.30
2016-09-03T04:28:34.333Z,58.30
2016-09-03T04:29:49.754Z,58.20
2016-09-03T04:30:33.156Z,58.20
2016-09-03T04:31:33.018Z,58.30
2016-09-03T04:32:28.893Z,58.30
2016-09-03T04:33:13.089Z,58.20
2016-09-03T04:34:33.892Z,58.20
2016-09-03T04:35:27.890Z,58.30
2016-09-03T04:36:28.336Z,58.20
2016-09-03T04:37:29.323Z,58.20
2016-09-03T04:38:33.283Z,58.20
2016-09-03T04:39:30.263Z,58.20
2016-09-03T04:40:28.136Z,58.20
2016-09-03T04:41:29.319Z,58.20
2016-09-03T04:42:24.371Z,58.20
2016-09-03T04:43:29.370Z,58.20
2016-09-03T04:44:33.686Z,58.50
2016-09-03T04:45:24.043Z,58.30
2016-09-03T04:46:26.215Z,58.20
2016-09-03T04:47:33.017Z,58.20
2016-09-03T04:48:29.108Z,58.20
2016-09-03T04:49:28.897Z,58.30
2016-09-03T04:50:28.692Z,58.20
2016-09-03T04:51:29.399Z,58.20
2016-09-03T04:52:32.466Z,58.40
2016-09-03T04:53:28.667Z,58.20
2016-09-03T04:54:29.272Z,58.20
2016-09-03T04:55:32.731Z,is
2016-09-03T04:56:35.542Z,58.20
2016-09-03T04:57:27.302Z,58.20
2016-09-03T04:58:29.314Z,58.20
2016-09-03T04:59:44.119Z,58.20
2016-09-03T05:00:28.921Z,58.20
2016-09-03T05:01:40.887Z,58.10
2016-09-03T05:02:27.858Z,58.20
2016-09-03T05:03:33.950Z,58.10
2016-09-03T05:04:33.834Z,58.20
2016-09-03T05:05:29.009Z,58.20
2016-09-03T05:06:23.263Z,58.10
2016-09-03T05:07:32.696Z,58.00
2016-09-03T05:08:22.803Z,58.10
2016-09-03T05:09:13.296Z,58.20
2016-09-03T05:10:28.692Z,58.10
2016-09-03T05:11:29.014Z,58.20
2016-09-03T05:12:28.477Z,58.40
2016-09-03T05:13:28.597Z,58.40
2016-09-03T05:14:29.656Z,58.30
2016-09-03T05:15:28.492Z,58.30
2016-09-03T05:16:29.588Z,58.30
2016-09-03T05:17:34.456Z,58.30
2016-09-03T05:18:33.209Z,58.40
2016-09-03T05:19:30.997Z,58.40
2016-09-03T05:20:29.389Z,58.30
2016-09-03T05:21:33.159Z,58.40
2016-09-03T05:22:28.451Z,58.50
2016-09-03T05:23:29.749Z,58.50
2016-09-03T05:24:27.461Z,58.60
2016-09-03T05:25:28.941Z,58.60
2016-09-03T05:26:27.995Z,58.70
2016-09-03T05:27:28.721Z,58.60
2016-09-03T05:28:28.145Z,58.50
2016-09-03T05:29:27.950Z,is
2016-09-03T05:30:25.417Z,58.60
2016-09-03T05:31:30.565Z,58.50
2016-09-03T05:32:32.950Z,58.50
2016-09-03T05:33:32.806Z,58.50
2016-09-03T05:34:33.182Z,58.70
2016-09-03T05:35:32.976Z,58.90
2016-09-03T05:36:27.941Z,58.80
2016-09-03T05:37:32.779Z,58.90
2016-09-03T05:38:28.576Z,59.20
2016-09-03T05:39:38.038Z,59.20
2016-09-03T05:40:31.075Z,59.60
2016-09-03T05:41:31.517Z,59.70
2016-09-03T05:42:31.245Z,59.70
2016-09-03T05:43:31.793Z,59.10
2016-09-03T05:44:29.404Z,59.60
2016-09-03T05:45:28.244Z,59.70
2016-09-03T05:46:33.521Z,59.70
2016-09-03T05:47:27.414Z,59.70
2016-09-03T05:48:29.332Z,59.60
2016-09-03T05:49:28.427Z,59.60
2016-09-03T05:50:33.776Z,59.70
2016-09-03T05:51:33.082Z,59.60
2016-09-03T05:52:28.639Z,59.70
2016-09-03T05:53:28.462Z,59.70
2016-09-03T05:54:28.983Z,59.70
2016-09-03T05:55:33.109Z,59.70
2016-09-03T05:56:29.830Z,59.60
2016-09-03T05:57:27.885Z,59.60
2016-09-03T05:58:27.736Z,59.60
2016-09-03T05:59:27.889Z,59.70
2016-09-03T06:00:27.470Z,59.60
2016-09-03T06:01:19.869Z,59.60
2016-09-03T06:02:33.253Z,59.60
2016-09-03T06:03:25.747Z,59.70
2016-09-03T06:04:31.605Z,59.70
2016-09-03T06:05:29.026Z,59.70
2016-09-03T06:06:28.729Z,59.70
2016-09-03T06:07:47.786Z,59.70
2016-09-03T06:08:30.582Z,59.70
2016-09-03T06:09:12.211Z,59.60
2016-09-03T06:10:42.068Z,59.60
2016-09-03T06:11:32.458Z,59.70
2016-09-03T06:12:33.475Z,59.70
2016-09-03T06:13:33.588Z,59.60
2016-09-03T06:14:28.604Z,59.60
2016-09-03T06:15:28.855Z,59.70
2016-09-03T06:16:27.724Z,59.70
2016-09-03T06:17:33.097Z,59.70
2016-09-03T06:18:34.014Z,59.70
2016-09-03T06:19:28.335Z,59.70
2016-09-03T06:20:28.475Z,59.80
2016-09-03T06:21:32.178Z,59.70
2016-09-03T06:22:33.720Z,59.40
2016-09-03T06:23:28.384Z,59.30
2016-09-03T06:24:29.205Z,is
2016-09-03T06:25:29.056Z,59.10
2016-09-03T06:26:28.937Z,59.00
2016-09-03T06:27:32.668Z,59.30
2016-09-03T06:28:28.740Z,59.60
2016-09-03T06:29:27.761Z,59.70
2016-09-03T06:30:28.177Z,59.70
2016-09-03T06:31:28.981Z,59.80
2016-09-03T06:32:48.988Z,59.30
2016-09-03T06:33:30.903Z,59.60
2016-09-03T06:34:34.075Z,59.30
2016-09-03T06:35:24.013Z,59.30
2016-09-03T06:36:33.269Z,59.50
2016-09-03T06:37:28.350Z,59.80
2016-09-03T06:38:28.276Z,59.70
2016-09-03T06:39:23.643Z,59.80
2016-09-03T06:40:29.828Z,59.80
2016-09-03T06:41:28.111Z,59.80
2016-09-03T06:42:33.082Z,60.20
2016-09-03T06:43:28.281Z,59.70
2016-09-03T06:44:32.832Z,59.80
2016-09-03T06:45:29.454Z,59.70
2016-09-03T06:46:27.919Z,59.30
2016-09-03T06:47:34.156Z,59.20
2016-09-03T06:48:29.394Z,59.60
2016-09-03T06:49:28.346Z,59.70
2016-09-03T06:50:32.942Z,59.70
2016-09-03T06:51:33.156Z,59.70
2016-09-03T06:52:22.514Z,59.80
2016-09-03T06:53:28.561Z,59.90
2016-09-03T06:54:35.757Z,is
2016-09-03T06:55:28.696Z,59.50
2016-09-03T06:56:28.502Z,59.50
2016-09-03T06:57:28.340Z,is
2016-09-03T06:58:28.286Z,59.30
2016-09-03T06:59:29.382Z,59.40
2016-09-03T07:00:22.775Z,59.50
2016-09-03T07:01:27.662Z,59.70
2016-09-03T07:02:32.088Z,59.50
2016-09-03T07:03:33.670Z,59.50
2016-09-03T07:04:29.065Z,59.20
2016-09-03T07:05:26.494Z,59.20
2016-09-03T07:06:29.322Z,59.40
2016-09-03T07:07:29.021Z,58.90
2016-09-03T07:08:33.238Z,59.10
2016-09-03T07:09:29.551Z,59.20
2016-09-03T07:10:26.670Z,59.10
2016-09-03T07:11:29.035Z,59.30
2016-09-03T07:12:28.994Z,59.40
2016-09-03T07:13:33.846Z,59.20
2016-09-03T07:14:28.957Z,59.10
2016-09-03T07:15:28.774Z,59.40
2016-09-03T07:16:32.980Z,59.90
2016-09-03T07:17:29.257Z,59.20
2016-09-03T07:18:29.105Z,59.50
2016-09-03T07:19:29.495Z,59.60
2016-09-03T07:20:33.503Z,59.40
2016-09-03T07:21:27.777Z,59.40
2016-09-03T07:22:29.151Z,57.50
2016-09-03T07:23:33.659Z,56.70
2016-09-03T07:24:28.715Z,56.20
2016-09-03T07:25:28.585Z,56.30
2016-09-03T07:26:29.430Z,56.00
2016-09-03T07:27:35.132Z,56.10
2016-09-03T07:28:31.698Z,56.20
2016-09-03T07:29:28.686Z,56.00
2016-09-03T07:30:32.371Z,55.70
2016-09-03T07:31:27.075Z,55.70
2016-09-03T07:32:33.436Z,55.20
2016-09-03T07:33:20.472Z,55.10
2016-09-03T07:34:29.413Z,55.00
2016-09-03T07:35:29.639Z,55.00
2016-09-03T07:36:23.443Z,55.00
2016-09-03T07:37:29.803Z,55.10
2016-09-03T07:38:28.739Z,55.20
2016-09-03T07:39:36.098Z,55.10
2016-09-03T07:40:27.323Z,is
2016-09-03T07:41:27.246Z,55.30
2016-09-03T07:42:28.737Z,55.00
2016-09-03T07:43:31.571Z,54.90
2016-09-03T07:44:29.214Z,54.90
2016-09-03T07:45:33.580Z,54.70
2016-09-03T07:46:33.069Z,54.60
2016-09-03T07:47:27.470Z,54.70
2016-09-03T07:48:33.695Z,is
2016-09-03T07:49:28.364Z,54.20
2016-09-03T07:50:27.876Z,54.10
2016-09-03T07:51:29.287Z,53.70
2016-09-03T07:52:34.178Z,53.80
2016-09-03T07:53:28.971Z,53.80
2016-09-03T07:54:34.396Z,53.40
2016-09-03T07:55:34.139Z,53.40
2016-09-03T07:56:33.997Z,is
2016-09-03T07:57:26.425Z,53.20
2016-09-03T07:58:33.744Z,52.80
2016-09-03T07:59:45.938Z,53.30
2016-09-03T08:00:27.891Z,53.00
2016-09-03T08:01:27.994Z,53.40
2016-09-03T08:02:29.950Z,52.90
2016-09-03T08:03:27.938Z,53.30
2016-09-03T08:04:27.952Z,53.30
2016-09-03T08:05:20.334Z,53.40
2016-09-03T08:06:28.227Z,53.50
2016-09-03T08:07:34.489Z,53.50
2016-09-03T08:08:23.000Z,is
2016-09-03T08:09:19.940Z,53.40
2016-09-03T08:10:38.364Z,52.90
2016-09-03T08:11:44.075Z,53.00
2016-09-03T08:12:12.327Z,53.00
2016-09-03T08:13:33.007Z,52.80
2016-09-03T08:14:29.368Z,53.00
2016-09-03T08:15:27.437Z,53.00
2016-09-03T08:16:34.134Z,53.20
2016-09-03T08:17:33.064Z,52.80
2016-09-03T08:18:29.493Z,53.10
2016-09-03T08:19:28.724Z,is
2016-09-03T08:20:29.453Z,53.50
2016-09-03T08:21:28.083Z,53.60
2016-09-03T08:22:22.424Z,53.60
2016-09-03T08:23:28.287Z,53.70
2016-09-03T08:24:22.127Z,53.50
2016-09-03T08:25:28.614Z,53.60
2016-09-03T08:26:29.111Z,53.70
2016-09-03T08:27:34.145Z,53.90
2016-09-03T08:28:33.943Z,53.80
2016-09-03T08:29:29.072Z,54.50
2016-09-03T08:30:28.987Z,54.70
2016-09-03T08:31:29.418Z,54.80
2016-09-03T08:32:27.933Z,54.90
2016-09-03T08:33:29.294Z,55.10
2016-09-03T08:34:28.736Z,54.80
2016-09-03T08:35:28.746Z,55.20
2016-09-03T08:36:28.306Z,55.20
2016-09-03T08:37:33.552Z,55.30
2016-09-03T08:38:19.952Z,55.20
2016-09-03T08:39:28.131Z,55.40
2016-09-03T08:40:32.762Z,55.50
2016-09-03T08:41:31.098Z,55.40
2016-09-03T08:42:27.959Z,55.50
2016-09-03T08:43:33.092Z,55.50
2016-09-03T08:44:23.093Z,55.60
2016-09-03T08:45:28.458Z,55.70
2016-09-03T08:46:33.117Z,55.70
2016-09-03T08:47:29.674Z,55.60
2016-09-03T08:48:42.942Z,55.70
2016-09-03T08:49:27.291Z,55.60
2016-09-03T08:50:27.137Z,55.70
2016-09-03T08:51:28.565Z,55.70
2016-09-03T08:52:29.068Z,55.70
2016-09-03T08:53:29.089Z,55.70
2016-09-03T08:54:29.043Z,55.70
2016-09-03T08:55:28.264Z,55.70
2016-09-03T08:56:27.324Z,55.70
2016-09-03T08:57:25.948Z,55.70
2016-09-03T08:58:29.103Z,55.70
2016-09-03T08:59:28.615Z,55.70
2016-09-03T09:00:28.958Z,55.70
2016-09-03T09:01:28.553Z,55.70
2016-09-03T09:02:22.746Z,55.70
2016-09-03T09:03:27.457Z,55.80
2016-09-03T09:04:40.823Z,55.70
2016-09-03T09:05:26.313Z,55.70
2016-09-03T09:06:28.082Z,55.80
2016-09-03T09:07:27.371Z,55.80
2016-09-03T09:08:29.333Z,55.80
2016-09-03T09:09:27.334Z,55.80
2016-09-03T09:10:29.073Z,55.80
2016-09-03T09:11:27.664Z,55.80
2016-09-03T09:12:32.857Z,55.80
2016-09-03T09:13:27.929Z,55.80
2016-09-03T09:14:27.921Z,is
2016-09-03T09:15:29.344Z,56.00
2016-09-03T09:16:31.752Z,56.10
2016-09-03T09:17:28.884Z,55.90
2016-09-03T09:18:29.510Z,55.80
2016-09-03T09:19:31.250Z,55.80
2016-09-03T09:20:28.830Z,56.00
2016-09-03T09:21:32.209Z,55.90
2016-09-03T09:22:28.370Z,56.00
2016-09-03T09:23:28.767Z,56.10
2016-09-03T09:24:28.562Z,55.90
2016-09-03T09:25:32.979Z,56.10
2016-09-03T09:26:43.894Z,56.00
2016-09-03T09:27:31.926Z,56.10
2016-09-03T09:28:33.000Z,56.10
2016-09-03T09:29:44.751Z,56.20
2016-09-03T09:30:27.994Z,56.20
2016-09-03T09:31:28.953Z,56.20
2016-09-03T09:32:43.279Z,56.20
2016-09-03T09:33:43.049Z,56.10
2016-09-03T09:34:32.752Z,56.20
2016-09-03T09:35:33.764Z,56.30
2016-09-03T09:36:34.589Z,56.20
2016-09-03T09:37:29.402Z,56.90
2016-09-03T09:38:28.931Z,56.30
2016-09-03T09:39:33.948Z,56.30
2016-09-03T09:40:32.757Z,56.40
2016-09-03T09:41:23.135Z,56.20
2016-09-03T09:42:28.597Z,56.20
2016-09-03T09:43:33.005Z,56.30
2016-09-03T09:44:29.171Z,56.30
2016-09-03T09:45:28.835Z,56.20
2016-09-03T09:46:32.187Z,56.40
2016-09-03T09:47:27.354Z,is
2016-09-03T09:48:33.135Z,56.30
2016-09-03T09:49:29.456Z,56.50
2016-09-03T09:50:34.117Z,56.40
2016-09-03T09:51:33.380Z,56.50
2016-09-03T09:52:27.815Z,56.60
2016-09-03T09:53:28.924Z,56.70
2016-09-03T09:54:28.705Z,56.80
2016-09-03T09:55:32.990Z,56.50
2016-09-03T09:56:29.216Z,56.70
2016-09-03T09:57:27.145Z,57.20
2016-09-03T09:58:28.677Z,56.80
2016-09-03T09:59:20.648Z,56.90
2016-09-03T10:00:29.279Z,57.00
2016-09-03T10:01:33.043Z,55.00
2016-09-03T10:02:33.268Z,54.10
2016-09-03T10:03:31.090Z,52.50
2016-09-03T10:04:28.860Z,52.60
2016-09-03T10:05:29.350Z,51.80
2016-09-03T10:06:32.648Z,51.00
2016-09-03T10:07:27.702Z,51.70
2016-09-03T10:08:33.556Z,51.20
2016-09-03T10:09:33.780Z,51.60
2016-09-03T10:10:35.971Z,51.20
2016-09-03T10:11:23.057Z,51.70
2016-09-03T10:12:22.125Z,51.20
2016-09-03T10:13:27.809Z,51.50
2016-09-03T10:14:23.101Z,51.70
2016-09-03T10:15:25.260Z,51.20
2016-09-03T10:16:27.415Z,51.10
2016-09-03T10:17:19.347Z,51.30
2016-09-03T10:18:22.006Z,50.70
2016-09-03T10:19:25.302Z,51.30
2016-09-03T10:20:28.146Z,51.20
2016-09-03T10:21:28.255Z,50.70
2016-09-03T10:22:27.842Z,50.90
2016-09-03T10:23:21.945Z,50.90
2016-09-03T10:24:19.895Z,51.00
2016-09-03T10:25:27.283Z,51.80
2016-09-03T10:26:22.594Z,50.90
2016-09-03T10:27:15.117Z,51.10
2016-09-03T10:28:33.905Z,51.60
2016-09-03T10:29:15.327Z,51.40
2016-09-03T10:30:15.433Z,51.60
2016-09-03T10:31:21.278Z,51.50
2016-09-03T10:32:16.983Z,51.70
2016-09-03T10:33:16.892Z,51.50
2016-09-03T10:34:30.715Z,51.30
2016-09-03T10:35:18.636Z,51.50
2016-09-03T10:36:33.887Z,51.20
2016-09-03T10:37:28.350Z,51.60
2016-09-03T10:38:28.748Z,51.40
2016-09-03T10:39:22.302Z,51.60
2016-09-03T10:40:29.031Z,51.70
2016-09-03T10:41:33.735Z,51.70
2016-09-03T10:42:29.641Z,51.60
2016-09-03T10:43:17.703Z,51.30
2016-09-03T10:44:35.874Z,51.90
2016-09-03T10:45:32.232Z,52.10
2016-09-03T10:46:47.497Z,52.20
2016-09-03T10:47:29.820Z,52.00
2016-09-03T10:48:28.825Z,52.40
2016-09-03T10:49:28.971Z,52.80
2016-09-03T10:50:28.254Z,52.50
2016-09-03T10:51:26.105Z,52.20
2016-09-03T10:52:29.187Z,51.20
2016-09-03T10:53:28.358Z,52.40
2016-09-03T10:54:31.164Z,51.90
2016-09-03T10:55:28.966Z,52.20
2016-09-03T10:56:42.465Z,52.20
2016-09-03T10:57:44.942Z,52.30
2016-09-03T10:58:28.344Z,52.50
2016-09-03T10:59:30.575Z,51.80
2016-09-03T11:00:28.907Z,51.70
2016-09-03T11:01:28.248Z,51.90
2016-09-03T11:02:28.584Z,51.50
2016-09-03T11:03:34.036Z,52.00
2016-09-03T11:04:23.005Z,51.50
2016-09-03T11:05:42.433Z,51.60
2016-09-03T11:06:27.555Z,51.40
2016-09-03T11:07:29.114Z,51.50
2016-09-03T11:08:28.412Z,51.70
2016-09-03T11:09:33.009Z,52.00
2016-09-03T11:10:22.919Z,51.70
2016-09-03T11:11:33.203Z,51.60
2016-09-03T11:12:28.139Z,51.50
2016-09-03T11:13:28.635Z,51.70
2016-09-03T11:14:38.715Z,51.50
2016-09-03T11:15:33.344Z,52.00
2016-09-03T11:16:33.613Z,52.00
2016-09-03T11:17:28.950Z,52.30
2016-09-03T11:18:29.744Z,52.40
2016-09-03T11:19:34.224Z,52.40
2016-09-03T11:20:35.626Z,52.00
2016-09-03T11:21:27.190Z,52.50
2016-09-03T11:22:28.081Z,51.80
2016-09-03T11:23:44.780Z,52.10
2016-09-03T11:24:22.129Z,51.80
2016-09-03T11:25:19.938Z,51.60
2016-09-03T11:26:29.776Z,51.70
2016-09-03T11:27:30.358Z,52.40
2016-09-03T11:28:29.404Z,51.90
2016-09-03T11:29:28.624Z,52.40
2016-09-03T11:30:29.393Z,52.30
2016-09-03T11:31:33.938Z,52.30
2016-09-03T11:32:27.348Z,52.20
2016-09-03T11:33:30.705Z,52.40
2016-09-03T11:34:29.876Z,52.60
2016-09-03T11:35:27.061Z,52.40
2016-09-03T11:36:27.791Z,52.20
2016-09-03T11:37:25.093Z,51.90
2016-09-03T11:38:28.880Z,51.70
2016-09-03T11:39:33.814Z,52.00
2016-09-03T11:40:27.100Z,51.60
2016-09-03T11:41:29.772Z,51.70
2016-09-03T11:42:28.738Z,52.10
2016-09-03T11:43:29.209Z,52.00
2016-09-03T11:44:35.389Z,51.90
2016-09-03T11:45:28.609Z,52.20
2016-09-03T11:46:37.426Z,52.20
2016-09-03T11:47:25.910Z,52.00
2016-09-03T11:48:23.083Z,52.10
2016-09-03T11:49:28.990Z,52.10
2016-09-03T11:50:29.194Z,52.10
2016-09-03T11:51:28.618Z,52.00
2016-09-03T11:52:28.741Z,52.20
2016-09-03T11:53:34.591Z,51.90
2016-09-03T11:54:35.284Z,52.00
2016-09-03T11:55:28.842Z,51.60
2016-09-03T11:56:28.433Z,51.60
2016-09-03T11:57:28.441Z,51.80
2016-09-03T11:58:33.904Z,51.80
2016-09-03T11:59:43.644Z,51.80
2016-09-03T12:00:42.038Z,51.60
2016-09-03T12:01:27.382Z,51.90
2016-09-03T12:02:51.546Z,51.90
2016-09-03T12:03:19.221Z,52.10
2016-09-03T12:04:27.545Z,51.70
2016-09-03T12:05:27.884Z,51.80
2016-09-03T12:06:33.428Z,51.80
2016-09-03T12:07:28.587Z,51.90
2016-09-03T12:08:31.593Z,52.30
2016-09-03T12:09:28.807Z,52.30
2016-09-03T12:10:28.384Z,52.30
2016-09-03T12:11:31.939Z,is
2016-09-03T12:12:28.335Z,52.90
2016-09-03T12:13:27.054Z,52.90
2016-09-03T12:14:28.421Z,53.00
2016-09-03T12:15:32.725Z,53.10
2016-09-03T12:16:29.215Z,53.20
2016-09-03T12:17:23.691Z,53.30
2016-09-03T12:18:29.430Z,53.30
2016-09-03T12:19:33.528Z,53.40
2016-09-03T12:20:15.279Z,is
2016-09-03T12:21:31.502Z,53.70
2016-09-03T12:22:31.764Z,54.20
2016-09-03T12:23:33.297Z,54.10
2016-09-03T12:24:28.531Z,54.10
2016-09-03T12:25:22.135Z,54.10
2016-09-03T12:26:26.412Z,54.10
2016-09-03T12:27:28.768Z,54.10
2016-09-03T12:28:28.670Z,54.10
2016-09-03T12:29:27.339Z,is
2016-09-03T12:30:29.184Z,54.10
2016-09-03T12:31:27.981Z,54.10
2016-09-03T12:32:32.408Z,54.10
2016-09-03T12:33:34.649Z,54.20
2016-09-03T12:34:28.694Z,54.10
2016-09-03T12:35:26.285Z,54.10
2016-09-03T12:36:30.928Z,54.20
2016-09-03T12:37:17.053Z,54.20
2016-09-03T12:38:38.567Z,54.20
2016-09-03T12:39:29.387Z,54.20
2016-09-03T12:40:29.559Z,54.20
2016-09-03T12:41:32.738Z,54.40
2016-09-03T12:42:33.759Z,54.30
2016-09-03T12:43:44.046Z,54.30
2016-09-03T12:44:14.466Z,54.30
2016-09-03T12:45:32.694Z,54.50
2016-09-03T12:46:28.751Z,54.40
2016-09-03T12:47:33.509Z,54.40
2016-09-03T12:48:23.662Z,54.50
2016-09-03T12:49:27.195Z,54.70
2016-09-03T12:50:21.985Z,54.40
2016-09-03T12:51:34.433Z,54.70
2016-09-03T12:52:43.933Z,54.70
2016-09-03T12:53:19.659Z,54.90
2016-09-03T12:54:34.405Z,54.80
2016-09-03T12:55:33.996Z,54.80